Serene Lakes, California
Current Conditions -  °F | °C
As of 2:52 PM on Tuesday 27 Jan 2015 (Local Time) from KBLU Reporting Station
Overcast Overcast  
Wind Chill: 44°   Ceiling: 8500
Heat Index: 44°   Visibility: 10mi
Dew Point: 29°   Wind: 3mph
Humidity: 55%   Direction: 200°SSW
Pressure: 30.27"   Gusts: NA
Location:  39.4261°N, 120.475°W
Report Text: KBLU 272252Z AUTO 20003KT 10SM OVC085 07/M02 A3027 RMK AO2 SLP222 T00671017
Loading
Personal Weather Stations






























Interactive Weather Map New forecast layout! Learn more

10-Day Weather Forecast

Advertisements
Track Severe Weather on mobile